sensor_id;sensor_type;location;lat;lon;timestamp;P1;durP1;ratioP1;P2;durP2;ratioP2
52512;SDS011;38422;53.172;6.974;2023-04-07T00:01:01;14.85;;;11.80;;
52512;SDS011;38422;53.172;6.974;2023-04-07T00:03:27;13.98;;;11.25;;
52512;SDS011;38422;53.172;6.974;2023-04-07T00:05:53;13.65;;;10.90;;
52512;SDS011;38422;53.172;6.974;2023-04-07T00:08:18;13.30;;;11.38;;
52512;SDS011;38422;53.172;6.974;2023-04-07T00:10:44;12.77;;;10.82;;
52512;SDS011;38422;53.172;6.974;2023-04-07T00:13:11;13.75;;;10.88;;
52512;SDS011;38422;53.172;6.974;2023-04-07T00:15:36;12.85;;;10.80;;
52512;SDS011;38422;53.172;6.974;2023-04-07T00:18:02;15.85;;;11.43;;
52512;SDS011;38422;53.172;6.974;2023-04-07T00:20:28;12.98;;;10.50;;
52512;SDS011;38422;53.172;6.974;2023-04-07T00:22:53;13.55;;;10.63;;
52512;SDS011;38422;53.172;6.974;2023-04-07T00:25:19;13.13;;;10.27;;
52512;SDS011;38422;53.172;6.974;2023-04-07T00:27:45;15.13;;;10.55;;
52512;SDS011;38422;53.172;6.974;2023-04-07T00:30:11;13.80;;;10.70;;
52512;SDS011;38422;53.172;6.974;2023-04-07T00:32:36;13.70;;;10.27;;
52512;SDS011;38422;53.172;6.974;2023-04-07T00:35:02;13.93;;;10.30;;
52512;SDS011;38422;53.172;6.974;2023-04-07T00:37:28;12.70;;;10.30;;
52512;SDS011;38422;53.172;6.974;2023-04-07T00:39:54;13.20;;;10.43;;
52512;SDS011;38422;53.172;6.974;2023-04-07T00:42:21;13.48;;;10.88;;
52512;SDS011;38422;53.172;6.974;2023-04-07T00:44:46;12.40;;;9.95;;
52512;SDS011;38422;53.172;6.974;2023-04-07T00:47:12;12.70;;;10.55;;
52512;SDS011;38422;53.172;6.974;2023-04-07T00:49:39;12.77;;;10.23;;
52512;SDS011;38422;53.172;6.974;2023-04-07T00:52:05;13.25;;;9.95;;
52512;SDS011;38422;53.172;6.974;2023-04-07T00:54:32;12.20;;;9.60;;
52512;SDS011;38422;53.172;6.974;2023-04-07T00:56:57;12.52;;;10.18;;
52512;SDS011;38422;53.172;6.974;2023-04-07T00:59:23;11.88;;;9.75;;
52512;SDS011;38422;53.172;6.974;2023-04-07T01:01:53;12.18;;;10.00;;
52512;SDS011;38422;53.172;6.974;2023-04-07T01:04:44;13.32;;;11.02;;
52512;SDS011;38422;53.172;6.974;2023-04-07T01:07:17;11.93;;;10.15;;
52512;SDS011;38422;53.172;6.974;2023-04-07T01:10:05;11.40;;;9.43;;
52512;SDS011;38422;53.172;6.974;2023-04-07T01:15:09;12.05;;;10.05;;
52512;SDS011;38422;53.172;6.974;2023-04-07T01:17:38;12.43;;;10.30;;
52512;SDS011;38422;53.172;6.974;2023-04-07T01:20:10;11.38;;;9.15;;
52512;SDS011;38422;53.172;6.974;2023-04-07T01:22:48;11.90;;;10.45;;
52512;SDS011;38422;53.172;6.974;2023-04-07T01:31:25;11.70;;;9.63;;
52512;SDS011;38422;53.172;6.974;2023-04-07T01:33:51;12.18;;;9.68;;
52512;SDS011;38422;53.172;6.974;2023-04-07T01:36:19;13.32;;;10.07;;
52512;SDS011;38422;53.172;6.974;2023-04-07T01:38:46;11.18;;;9.40;;
52512;SDS011;38422;53.172;6.974;2023-04-07T01:43:40;11.13;;;9.23;;
52512;SDS011;38422;53.172;6.974;2023-04-07T01:46:07;11.23;;;9.68;;
52512;SDS011;38422;53.172;6.974;2023-04-07T01:48:33;10.48;;;9.18;;
52512;SDS011;38422;53.172;6.974;2023-04-07T01:53:28;12.38;;;9.60;;
52512;SDS011;38422;53.172;6.974;2023-04-07T01:55:54;12.57;;;10.27;;
52512;SDS011;38422;53.172;6.974;2023-04-07T01:58:20;13.15;;;10.27;;
52512;SDS011;38422;53.172;6.974;2023-04-07T02:00:46;13.05;;;10.40;;
52512;SDS011;38422;53.172;6.974;2023-04-07T02:03:14;11.80;;;9.82;;
52512;SDS011;38422;53.172;6.974;2023-04-07T02:05:46;13.23;;;10.80;;
52512;SDS011;38422;53.172;6.974;2023-04-07T02:08:15;12.32;;;10.10;;
52512;SDS011;38422;53.172;6.974;2023-04-07T02:10:45;13.32;;;10.32;;
52512;SDS011;38422;53.172;6.974;2023-04-07T02:13:14;12.27;;;10.13;;
52512;SDS011;38422;53.172;6.974;2023-04-07T02:15:42;12.45;;;9.63;;
52512;SDS011;38422;53.172;6.974;2023-04-07T02:18:09;11.98;;;10.23;;
52512;SDS011;38422;53.172;6.974;2023-04-07T02:20:38;13.48;;;10.63;;
52512;SDS011;38422;53.172;6.974;2023-04-07T02:23:06;15.18;;;10.88;;
52512;SDS011;38422;53.172;6.974;2023-04-07T02:25:32;13.70;;;11.38;;
52512;SDS011;38422;53.172;6.974;2023-04-07T02:27:58;12.75;;;10.93;;
52512;SDS011;38422;53.172;6.974;2023-04-07T02:30:25;12.00;;;10.30;;
52512;SDS011;38422;53.172;6.974;2023-04-07T02:32:52;15.43;;;10.67;;
52512;SDS011;38422;53.172;6.974;2023-04-07T02:35:18;13.52;;;10.77;;
52512;SDS011;38422;53.172;6.974;2023-04-07T02:37:44;12.90;;;10.85;;
52512;SDS011;38422;53.172;6.974;2023-04-07T02:40:10;13.30;;;10.75;;
52512;SDS011;38422;53.172;6.974;2023-04-07T02:42:36;12.45;;;10.85;;
52512;SDS011;38422;53.172;6.974;2023-04-07T02:45:03;13.25;;;10.65;;
52512;SDS011;38422;53.172;6.974;2023-04-07T02:47:30;13.40;;;11.00;;
52512;SDS011;38422;53.172;6.974;2023-04-07T02:49:56;13.70;;;11.02;;
52512;SDS011;38422;53.172;6.974;2023-04-07T02:52:21;13.75;;;11.80;;
52512;SDS011;38422;53.172;6.974;2023-04-07T02:54:47;14.45;;;11.38;;
52512;SDS011;38422;53.172;6.974;2023-04-07T02:57:13;14.18;;;11.13;;
52512;SDS011;38422;53.172;6.974;2023-04-07T02:59:39;13.73;;;10.98;;
52512;SDS011;38422;53.172;6.974;2023-04-07T03:02:05;14.57;;;12.00;;
52512;SDS011;38422;53.172;6.974;2023-04-07T03:04:31;15.02;;;12.32;;
52512;SDS011;38422;53.172;6.974;2023-04-07T03:06:57;13.95;;;11.20;;
52512;SDS011;38422;53.172;6.974;2023-04-07T03:09:23;13.15;;;10.85;;
52512;SDS011;38422;53.172;6.974;2023-04-07T03:11:48;13.88;;;11.15;;
52512;SDS011;38422;53.172;6.974;2023-04-07T03:14:14;14.30;;;11.43;;
52512;SDS011;38422;53.172;6.974;2023-04-07T03:16:41;12.38;;;10.57;;
52512;SDS011;38422;53.172;6.974;2023-04-07T03:19:07;13.82;;;10.63;;
52512;SDS011;38422;53.172;6.974;2023-04-07T03:21:33;13.95;;;10.55;;
52512;SDS011;38422;53.172;6.974;2023-04-07T03:24:00;12.85;;;11.02;;
52512;SDS011;38422;53.172;6.974;2023-04-07T03:26:25;13.02;;;10.73;;
52512;SDS011;38422;53.172;6.974;2023-04-07T03:28:51;13.10;;;10.80;;
52512;SDS011;38422;53.172;6.974;2023-04-07T03:31:17;13.05;;;10.40;;
52512;SDS011;38422;53.172;6.974;2023-04-07T03:33:43;12.80;;;10.65;;
52512;SDS011;38422;53.172;6.974;2023-04-07T03:36:08;13.90;;;11.50;;
52512;SDS011;38422;53.172;6.974;2023-04-07T03:38:35;13.35;;;10.95;;
52512;SDS011;38422;53.172;6.974;2023-04-07T03:41:00;13.50;;;11.25;;
52512;SDS011;38422;53.172;6.974;2023-04-07T03:43:26;13.38;;;10.95;;
52512;SDS011;38422;53.172;6.974;2023-04-07T03:45:52;12.93;;;10.93;;
52512;SDS011;38422;53.172;6.974;2023-04-07T03:48:18;12.90;;;10.48;;
52512;SDS011;38422;53.172;6.974;2023-04-07T03:50:44;13.07;;;10.38;;
52512;SDS011;38422;53.172;6.974;2023-04-07T03:53:10;13.57;;;10.98;;
52512;SDS011;38422;53.172;6.974;2023-04-07T03:55:39;13.15;;;10.75;;
52512;SDS011;38422;53.172;6.974;2023-04-07T03:58:05;14.23;;;11.60;;
52512;SDS011;38422;53.172;6.974;2023-04-07T04:00:31;14.48;;;11.48;;
52512;SDS011;38422;53.172;6.974;2023-04-07T04:02:58;14.15;;;11.85;;
52512;SDS011;38422;53.172;6.974;2023-04-07T04:05:24;14.48;;;10.82;;
52512;SDS011;38422;53.172;6.974;2023-04-07T04:07:50;14.35;;;11.55;;
52512;SDS011;38422;53.172;6.974;2023-04-07T04:10:17;14.38;;;12.02;;
52512;SDS011;38422;53.172;6.974;2023-04-07T04:12:43;14.18;;;11.38;;
52512;SDS011;38422;53.172;6.974;2023-04-07T04:15:09;15.43;;;11.73;;
52512;SDS011;38422;53.172;6.974;2023-04-07T04:17:35;13.82;;;10.70;;
52512;SDS011;38422;53.172;6.974;2023-04-07T04:20:01;13.93;;;11.40;;
52512;SDS011;38422;53.172;6.974;2023-04-07T04:22:27;14.48;;;11.65;;
52512;SDS011;38422;53.172;6.974;2023-04-07T04:24:53;13.95;;;11.65;;
52512;SDS011;38422;53.172;6.974;2023-04-07T04:27:19;12.85;;;10.98;;
52512;SDS011;38422;53.172;6.974;2023-04-07T04:29:44;13.63;;;11.75;;
52512;SDS011;38422;53.172;6.974;2023-04-07T04:32:11;13.57;;;11.45;;
52512;SDS011;38422;53.172;6.974;2023-04-07T04:34:37;15.18;;;11.20;;
52512;SDS011;38422;53.172;6.974;2023-04-07T04:37:06;15.07;;;11.90;;
52512;SDS011;38422;53.172;6.974;2023-04-07T04:39:31;13.38;;;11.35;;
52512;SDS011;38422;53.172;6.974;2023-04-07T04:41:57;14.82;;;11.70;;
52512;SDS011;38422;53.172;6.974;2023-04-07T04:44:23;15.68;;;12.63;;
52512;SDS011;38422;53.172;6.974;2023-04-07T04:46:49;15.10;;;12.32;;
52512;SDS011;38422;53.172;6.974;2023-04-07T04:49:15;13.45;;;11.40;;
52512;SDS011;38422;53.172;6.974;2023-04-07T04:51:42;14.73;;;11.85;;
52512;SDS011;38422;53.172;6.974;2023-04-07T04:54:09;14.48;;;11.57;;
52512;SDS011;38422;53.172;6.974;2023-04-07T04:56:34;15.50;;;12.13;;
52512;SDS011;38422;53.172;6.974;2023-04-07T04:59:01;15.95;;;12.60;;
52512;SDS011;38422;53.172;6.974;2023-04-07T05:01:27;14.63;;;12.70;;
52512;SDS011;38422;53.172;6.974;2023-04-07T05:03:53;14.48;;;11.95;;
52512;SDS011;38422;53.172;6.974;2023-04-07T05:06:18;14.27;;;11.65;;
52512;SDS011;38422;53.172;6.974;2023-04-07T05:08:45;15.43;;;12.68;;
52512;SDS011;38422;53.172;6.974;2023-04-07T05:11:10;15.32;;;12.27;;
52512;SDS011;38422;53.172;6.974;2023-04-07T05:13:36;15.70;;;12.98;;
52512;SDS011;38422;53.172;6.974;2023-04-07T05:16:02;15.27;;;12.82;;
52512;SDS011;38422;53.172;6.974;2023-04-07T05:18:29;16.45;;;12.10;;
52512;SDS011;38422;53.172;6.974;2023-04-07T05:20:54;15.32;;;12.27;;
52512;SDS011;38422;53.172;6.974;2023-04-07T05:23:20;16.95;;;12.75;;
52512;SDS011;38422;53.172;6.974;2023-04-07T05:25:46;16.33;;;13.85;;
52512;SDS011;38422;53.172;6.974;2023-04-07T05:28:11;17.92;;;14.10;;
52512;SDS011;38422;53.172;6.974;2023-04-07T05:30:37;14.82;;;12.60;;
52512;SDS011;38422;53.172;6.974;2023-04-07T05:33:03;16.40;;;13.77;;
52512;SDS011;38422;53.172;6.974;2023-04-07T05:35:28;16.55;;;12.93;;
52512;SDS011;38422;53.172;6.974;2023-04-07T05:37:54;18.35;;;13.93;;
52512;SDS011;38422;53.172;6.974;2023-04-07T05:40:20;16.85;;;13.02;;
52512;SDS011;38422;53.172;6.974;2023-04-07T05:42:46;15.68;;;13.30;;
52512;SDS011;38422;53.172;6.974;2023-04-07T05:45:11;17.13;;;13.57;;
52512;SDS011;38422;53.172;6.974;2023-04-07T05:47:37;17.65;;;14.05;;
52512;SDS011;38422;53.172;6.974;2023-04-07T05:50:03;16.30;;;13.15;;
52512;SDS011;38422;53.172;6.974;2023-04-07T05:52:29;17.40;;;13.25;;
52512;SDS011;38422;53.172;6.974;2023-04-07T05:54:55;17.77;;;13.65;;
52512;SDS011;38422;53.172;6.974;2023-04-07T05:57:20;17.02;;;13.18;;
52512;SDS011;38422;53.172;6.974;2023-04-07T05:59:47;17.83;;;13.90;;
52512;SDS011;38422;53.172;6.974;2023-04-07T06:02:12;18.17;;;14.25;;
52512;SDS011;38422;53.172;6.974;2023-04-07T06:04:38;15.25;;;12.68;;
52512;SDS011;38422;53.172;6.974;2023-04-07T06:07:05;16.38;;;13.98;;
52512;SDS011;38422;53.172;6.974;2023-04-07T06:09:31;16.77;;;14.05;;
52512;SDS011;38422;53.172;6.974;2023-04-07T06:11:57;17.05;;;12.65;;
52512;SDS011;38422;53.172;6.974;2023-04-07T06:14:23;16.83;;;13.38;;
52512;SDS011;38422;53.172;6.974;2023-04-07T06:16:48;18.23;;;13.50;;
52512;SDS011;38422;53.172;6.974;2023-04-07T06:19:14;16.25;;;12.95;;
52512;SDS011;38422;53.172;6.974;2023-04-07T06:21:40;17.73;;;14.20;;
52512;SDS011;38422;53.172;6.974;2023-04-07T06:24:06;17.50;;;12.90;;
52512;SDS011;38422;53.172;6.974;2023-04-07T06:26:31;15.15;;;12.35;;
52512;SDS011;38422;53.172;6.974;2023-04-07T06:28:57;15.80;;;12.48;;
52512;SDS011;38422;53.172;6.974;2023-04-07T06:31:23;14.55;;;12.55;;
52512;SDS011;38422;53.172;6.974;2023-04-07T06:33:50;15.60;;;12.77;;
52512;SDS011;38422;53.172;6.974;2023-04-07T06:36:15;15.75;;;12.23;;
52512;SDS011;38422;53.172;6.974;2023-04-07T06:38:41;16.35;;;13.38;;
52512;SDS011;38422;53.172;6.974;2023-04-07T06:41:07;17.70;;;13.52;;
52512;SDS011;38422;53.172;6.974;2023-04-07T06:43:37;16.30;;;13.30;;
52512;SDS011;38422;53.172;6.974;2023-04-07T06:46:02;17.15;;;13.90;;
52512;SDS011;38422;53.172;6.974;2023-04-07T06:48:28;17.65;;;14.70;;
52512;SDS011;38422;53.172;6.974;2023-04-07T06:50:54;17.45;;;14.45;;
52512;SDS011;38422;53.172;6.974;2023-04-07T06:53:20;17.77;;;14.27;;
52512;SDS011;38422;53.172;6.974;2023-04-07T06:55:45;19.40;;;15.85;;
52512;SDS011;38422;53.172;6.974;2023-04-07T06:58:11;19.40;;;15.52;;
52512;SDS011;38422;53.172;6.974;2023-04-07T07:00:37;17.45;;;14.85;;
52512;SDS011;38422;53.172;6.974;2023-04-07T07:03:02;18.90;;;15.50;;
52512;SDS011;38422;53.172;6.974;2023-04-07T07:05:28;19.65;;;15.88;;
52512;SDS011;38422;53.172;6.974;2023-04-07T07:07:54;18.95;;;15.23;;
52512;SDS011;38422;53.172;6.974;2023-04-07T07:10:20;20.83;;;16.52;;
52512;SDS011;38422;53.172;6.974;2023-04-07T07:12:47;19.30;;;16.77;;
52512;SDS011;38422;53.172;6.974;2023-04-07T07:15:13;20.75;;;16.40;;
52512;SDS011;38422;53.172;6.974;2023-04-07T07:17:39;18.75;;;16.17;;
52512;SDS011;38422;53.172;6.974;2023-04-07T07:20:05;21.23;;;17.00;;
52512;SDS011;38422;53.172;6.974;2023-04-07T07:22:31;21.85;;;16.70;;
52512;SDS011;38422;53.172;6.974;2023-04-07T07:24:57;20.02;;;16.40;;
52512;SDS011;38422;53.172;6.974;2023-04-07T07:27:23;24.35;;;17.65;;
52512;SDS011;38422;53.172;6.974;2023-04-07T07:29:48;19.98;;;16.75;;
52512;SDS011;38422;53.172;6.974;2023-04-07T07:32:14;19.77;;;16.85;;
52512;SDS011;38422;53.172;6.974;2023-04-07T07:34:40;20.35;;;16.02;;
52512;SDS011;38422;53.172;6.974;2023-04-07T07:37:06;19.95;;;16.90;;
52512;SDS011;38422;53.172;6.974;2023-04-07T07:39:32;20.02;;;16.60;;
52512;SDS011;38422;53.172;6.974;2023-04-07T07:41:57;19.98;;;16.50;;
52512;SDS011;38422;53.172;6.974;2023-04-07T07:44:23;21.23;;;16.13;;
52512;SDS011;38422;53.172;6.974;2023-04-07T07:46:49;19.75;;;15.73;;
52512;SDS011;38422;53.172;6.974;2023-04-07T07:49:15;19.90;;;15.60;;
52512;SDS011;38422;53.172;6.974;2023-04-07T07:51:41;19.48;;;15.57;;
52512;SDS011;38422;53.172;6.974;2023-04-07T07:54:07;17.65;;;15.27;;
52512;SDS011;38422;53.172;6.974;2023-04-07T07:56:33;18.10;;;14.98;;
52512;SDS011;38422;53.172;6.974;2023-04-07T07:58:59;19.42;;;14.90;;
52512;SDS011;38422;53.172;6.974;2023-04-07T08:01:25;20.15;;;15.35;;
52512;SDS011;38422;53.172;6.974;2023-04-07T08:03:51;17.92;;;14.88;;
52512;SDS011;38422;53.172;6.974;2023-04-07T08:06:17;17.65;;;14.85;;
52512;SDS011;38422;53.172;6.974;2023-04-07T08:08:43;16.95;;;13.75;;
52512;SDS011;38422;53.172;6.974;2023-04-07T08:11:09;15.75;;;13.73;;
52512;SDS011;38422;53.172;6.974;2023-04-07T08:13:34;28.77;;;14.52;;
52512;SDS011;38422;53.172;6.974;2023-04-07T08:16:00;17.50;;;13.50;;
52512;SDS011;38422;53.172;6.974;2023-04-07T08:18:26;17.35;;;12.82;;
52512;SDS011;38422;53.172;6.974;2023-04-07T08:20:52;14.60;;;11.85;;
52512;SDS011;38422;53.172;6.974;2023-04-07T08:23:17;14.52;;;12.50;;
52512;SDS011;38422;53.172;6.974;2023-04-07T08:25:43;15.63;;;11.68;;
52512;SDS011;38422;53.172;6.974;2023-04-07T08:28:09;14.88;;;11.77;;
52512;SDS011;38422;53.172;6.974;2023-04-07T08:30:35;16.15;;;11.90;;
52512;SDS011;38422;53.172;6.974;2023-04-07T08:33:02;12.75;;;10.93;;
52512;SDS011;38422;53.172;6.974;2023-04-07T08:35:29;12.55;;;10.98;;
52512;SDS011;38422;53.172;6.974;2023-04-07T08:37:55;13.00;;;10.90;;
52512;SDS011;38422;53.172;6.974;2023-04-07T08:40:21;14.63;;;10.55;;
52512;SDS011;38422;53.172;6.974;2023-04-07T08:42:47;13.25;;;10.70;;
52512;SDS011;38422;53.172;6.974;2023-04-07T08:45:17;14.40;;;10.70;;
52512;SDS011;38422;53.172;6.974;2023-04-07T08:47:43;13.05;;;11.07;;
52512;SDS011;38422;53.172;6.974;2023-04-07T08:50:12;11.15;;;9.48;;
52512;SDS011;38422;53.172;6.974;2023-04-07T08:52:44;11.98;;;9.68;;
52512;SDS011;38422;53.172;6.974;2023-04-07T08:55:13;12.23;;;10.48;;
52512;SDS011;38422;53.172;6.974;2023-04-07T08:57:40;12.13;;;9.77;;
52512;SDS011;38422;53.172;6.974;2023-04-07T09:00:06;12.35;;;9.52;;
52512;SDS011;38422;53.172;6.974;2023-04-07T09:02:37;11.10;;;9.90;;
52512;SDS011;38422;53.172;6.974;2023-04-07T09:05:05;11.15;;;9.65;;
52512;SDS011;38422;53.172;6.974;2023-04-07T09:07:33;11.38;;;9.77;;
52512;SDS011;38422;53.172;6.974;2023-04-07T09:10:00;12.50;;;9.68;;
52512;SDS011;38422;53.172;6.974;2023-04-07T09:12:26;12.07;;;9.48;;
52512;SDS011;38422;53.172;6.974;2023-04-07T09:14:53;10.00;;;8.52;;
52512;SDS011;38422;53.172;6.974;2023-04-07T09:17:19;11.50;;;9.25;;
52512;SDS011;38422;53.172;6.974;2023-04-07T09:19:48;11.23;;;9.50;;
52512;SDS011;38422;53.172;6.974;2023-04-07T09:22:18;11.38;;;8.57;;
52512;SDS011;38422;53.172;6.974;2023-04-07T09:25:18;11.60;;;9.10;;
52512;SDS011;38422;53.172;6.974;2023-04-07T09:30:27;9.48;;;8.48;;
52512;SDS011;38422;53.172;6.974;2023-04-07T09:35:21;12.80;;;8.10;;
52512;SDS011;38422;53.172;6.974;2023-04-07T09:38:04;9.43;;;7.05;;
52512;SDS011;38422;53.172;6.974;2023-04-07T09:40:34;9.88;;;7.88;;
52512;SDS011;38422;53.172;6.974;2023-04-07T09:43:00;9.88;;;7.43;;
52512;SDS011;38422;53.172;6.974;2023-04-07T09:45:28;8.70;;;7.72;;
52512;SDS011;38422;53.172;6.974;2023-04-07T09:47:56;8.45;;;6.95;;
52512;SDS011;38422;53.172;6.974;2023-04-07T09:50:32;9.00;;;7.50;;
52512;SDS011;38422;53.172;6.974;2023-04-07T09:52:59;9.63;;;7.73;;
52512;SDS011;38422;53.172;6.974;2023-04-07T09:55:26;8.90;;;7.05;;
52512;SDS011;38422;53.172;6.974;2023-04-07T09:57:53;9.18;;;6.97;;
52512;SDS011;38422;53.172;6.974;2023-04-07T10:00:20;8.68;;;6.82;;
52512;SDS011;38422;53.172;6.974;2023-04-07T10:02:46;8.40;;;6.80;;
52512;SDS011;38422;53.172;6.974;2023-04-07T10:05:13;7.47;;;6.10;;
52512;SDS011;38422;53.172;6.974;2023-04-07T10:07:39;7.63;;;6.00;;
52512;SDS011;38422;53.172;6.974;2023-04-07T10:10:06;7.65;;;5.75;;
52512;SDS011;38422;53.172;6.974;2023-04-07T10:12:33;7.30;;;5.97;;
52512;SDS011;38422;53.172;6.974;2023-04-07T10:15:02;5.90;;;5.03;;
52512;SDS011;38422;53.172;6.974;2023-04-07T10:17:28;7.10;;;5.10;;
52512;SDS011;38422;53.172;6.974;2023-04-07T10:19:57;6.60;;;5.15;;
52512;SDS011;38422;53.172;6.974;2023-04-07T10:22:23;7.82;;;4.65;;
52512;SDS011;38422;53.172;6.974;2023-04-07T10:24:58;5.88;;;4.95;;
52512;SDS011;38422;53.172;6.974;2023-04-07T10:27:30;6.00;;;4.80;;
52512;SDS011;38422;53.172;6.974;2023-04-07T10:29:58;6.45;;;4.82;;
52512;SDS011;38422;53.172;6.974;2023-04-07T10:32:25;6.00;;;5.07;;
52512;SDS011;38422;53.172;6.974;2023-04-07T10:37:20;5.78;;;5.00;;
52512;SDS011;38422;53.172;6.974;2023-04-07T10:39:47;6.88;;;5.20;;
52512;SDS011;38422;53.172;6.974;2023-04-07T10:45:05;5.65;;;4.90;;
52512;SDS011;38422;53.172;6.974;2023-04-07T10:47:33;6.00;;;5.30;;
52512;SDS011;38422;53.172;6.974;2023-04-07T10:50:20;6.40;;;5.28;;
52512;SDS011;38422;53.172;6.974;2023-04-07T10:52:48;6.40;;;4.82;;
52512;SDS011;38422;53.172;6.974;2023-04-07T11:03:22;5.55;;;4.78;;
52512;SDS011;38422;53.172;6.974;2023-04-07T11:08:14;6.20;;;4.90;;
52512;SDS011;38422;53.172;6.974;2023-04-07T11:10:40;6.32;;;5.00;;
52512;SDS011;38422;53.172;6.974;2023-04-07T11:13:12;6.88;;;5.68;;
52512;SDS011;38422;53.172;6.974;2023-04-07T11:15:37;6.10;;;5.40;;
52512;SDS011;38422;53.172;6.974;2023-04-07T11:18:16;6.70;;;5.78;;
52512;SDS011;38422;53.172;6.974;2023-04-07T11:20:45;6.53;;;5.10;;
52512;SDS011;38422;53.172;6.974;2023-04-07T11:23:13;5.90;;;4.85;;
52512;SDS011;38422;53.172;6.974;2023-04-07T11:25:43;7.22;;;5.10;;
52512;SDS011;38422;53.172;6.974;2023-04-07T11:28:10;6.97;;;5.45;;
52512;SDS011;38422;53.172;6.974;2023-04-07T11:30:37;6.72;;;5.30;;
52512;SDS011;38422;53.172;6.974;2023-04-07T11:33:03;6.67;;;5.80;;
52512;SDS011;38422;53.172;6.974;2023-04-07T11:35:30;6.97;;;4.97;;
52512;SDS011;38422;53.172;6.974;2023-04-07T11:37:58;7.15;;;5.70;;
52512;SDS011;38422;53.172;6.974;2023-04-07T11:40:32;7.88;;;5.45;;
52512;SDS011;38422;53.172;6.974;2023-04-07T11:43:01;6.75;;;5.45;;
52512;SDS011;38422;53.172;6.974;2023-04-07T11:45:27;6.55;;;5.80;;
52512;SDS011;38422;53.172;6.974;2023-04-07T11:47:53;8.00;;;5.93;;
52512;SDS011;38422;53.172;6.974;2023-04-07T11:53:05;7.80;;;6.00;;
52512;SDS011;38422;53.172;6.974;2023-04-07T11:55:30;8.40;;;5.57;;
52512;SDS011;38422;53.172;6.974;2023-04-07T11:58:04;6.45;;;5.18;;
52512;SDS011;38422;53.172;6.974;2023-04-07T12:00:30;7.57;;;5.60;;
52512;SDS011;38422;53.172;6.974;2023-04-07T12:02:56;6.57;;;5.35;;
52512;SDS011;38422;53.172;6.974;2023-04-07T12:05:21;7.72;;;5.90;;
52512;SDS011;38422;53.172;6.974;2023-04-07T12:07:52;7.90;;;5.90;;
52512;SDS011;38422;53.172;6.974;2023-04-07T12:10:22;7.60;;;6.00;;
52512;SDS011;38422;53.172;6.974;2023-04-07T12:12:52;6.88;;;5.50;;
52512;SDS011;38422;53.172;6.974;2023-04-07T12:15:18;6.78;;;5.78;;
52512;SDS011;38422;53.172;6.974;2023-04-07T12:17:45;6.50;;;5.30;;
52512;SDS011;38422;53.172;6.974;2023-04-07T12:22:37;6.50;;;5.63;;
52512;SDS011;38422;53.172;6.974;2023-04-07T12:25:04;6.90;;;5.90;;
52512;SDS011;38422;53.172;6.974;2023-04-07T12:27:30;7.07;;;5.65;;
52512;SDS011;38422;53.172;6.974;2023-04-07T12:29:55;6.97;;;5.50;;
52512;SDS011;38422;53.172;6.974;2023-04-07T12:32:21;6.20;;;5.55;;
52512;SDS011;38422;53.172;6.974;2023-04-07T12:34:47;5.85;;;5.25;;
52512;SDS011;38422;53.172;6.974;2023-04-07T12:37:13;6.78;;;5.22;;
52512;SDS011;38422;53.172;6.974;2023-04-07T12:39:39;8.35;;;6.05;;
52512;SDS011;38422;53.172;6.974;2023-04-07T12:42:05;6.30;;;5.40;;
52512;SDS011;38422;53.172;6.974;2023-04-07T12:44:32;7.03;;;5.97;;
52512;SDS011;38422;53.172;6.974;2023-04-07T12:46:58;6.60;;;5.90;;
52512;SDS011;38422;53.172;6.974;2023-04-07T12:49:23;7.90;;;6.78;;
52512;SDS011;38422;53.172;6.974;2023-04-07T12:51:49;8.02;;;6.78;;
52512;SDS011;38422;53.172;6.974;2023-04-07T12:54:15;7.50;;;6.40;;
52512;SDS011;38422;53.172;6.974;2023-04-07T12:56:41;7.65;;;6.55;;
52512;SDS011;38422;53.172;6.974;2023-04-07T12:59:07;7.60;;;6.78;;
52512;SDS011;38422;53.172;6.974;2023-04-07T13:01:33;7.28;;;6.53;;
52512;SDS011;38422;53.172;6.974;2023-04-07T13:03:59;8.53;;;6.67;;
52512;SDS011;38422;53.172;6.974;2023-04-07T13:06:26;7.85;;;6.50;;
52512;SDS011;38422;53.172;6.974;2023-04-07T13:08:51;7.63;;;6.47;;
52512;SDS011;38422;53.172;6.974;2023-04-07T13:11:17;10.40;;;6.65;;
52512;SDS011;38422;53.172;6.974;2023-04-07T13:13:43;7.28;;;6.53;;
52512;SDS011;38422;53.172;6.974;2023-04-07T13:16:08;8.95;;;6.75;;
52512;SDS011;38422;53.172;6.974;2023-04-07T13:18:34;8.75;;;6.95;;
52512;SDS011;38422;53.172;6.974;2023-04-07T13:21:01;8.00;;;6.70;;
52512;SDS011;38422;53.172;6.974;2023-04-07T13:23:26;8.80;;;7.18;;
52512;SDS011;38422;53.172;6.974;2023-04-07T13:25:52;8.98;;;7.65;;
52512;SDS011;38422;53.172;6.974;2023-04-07T13:28:18;8.57;;;6.93;;
52512;SDS011;38422;53.172;6.974;2023-04-07T13:30:45;8.50;;;7.50;;
52512;SDS011;38422;53.172;6.974;2023-04-07T13:33:11;9.02;;;7.30;;
52512;SDS011;38422;53.172;6.974;2023-04-07T13:35:37;10.82;;;7.28;;
52512;SDS011;38422;53.172;6.974;2023-04-07T13:38:03;8.70;;;7.20;;
52512;SDS011;38422;53.172;6.974;2023-04-07T13:40:29;7.95;;;7.10;;
52512;SDS011;38422;53.172;6.974;2023-04-07T13:42:55;9.43;;;7.18;;
52512;SDS011;38422;53.172;6.974;2023-04-07T13:45:21;10.70;;;8.10;;
52512;SDS011;38422;53.172;6.974;2023-04-07T13:47:47;9.10;;;7.30;;
52512;SDS011;38422;53.172;6.974;2023-04-07T13:50:13;11.48;;;8.07;;
52512;SDS011;38422;53.172;6.974;2023-04-07T13:52:39;10.00;;;7.67;;
52512;SDS011;38422;53.172;6.974;2023-04-07T13:55:05;7.95;;;7.10;;
52512;SDS011;38422;53.172;6.974;2023-04-07T13:57:31;9.40;;;6.97;;
52512;SDS011;38422;53.172;6.974;2023-04-07T13:59:57;9.70;;;7.43;;
52512;SDS011;38422;53.172;6.974;2023-04-07T14:02:24;9.98;;;7.75;;
52512;SDS011;38422;53.172;6.974;2023-04-07T14:04:51;8.15;;;7.05;;
52512;SDS011;38422;53.172;6.974;2023-04-07T14:07:17;10.35;;;7.30;;
52512;SDS011;38422;53.172;6.974;2023-04-07T14:09:43;8.98;;;7.05;;
52512;SDS011;38422;53.172;6.974;2023-04-07T14:12:10;9.55;;;7.30;;
52512;SDS011;38422;53.172;6.974;2023-04-07T14:14:36;9.20;;;7.43;;
52512;SDS011;38422;53.172;6.974;2023-04-07T14:17:02;9.52;;;7.30;;
52512;SDS011;38422;53.172;6.974;2023-04-07T14:19:27;9.27;;;7.47;;
52512;SDS011;38422;53.172;6.974;2023-04-07T14:21:53;8.82;;;7.10;;
52512;SDS011;38422;53.172;6.974;2023-04-07T14:24:20;8.80;;;6.93;;
52512;SDS011;38422;53.172;6.974;2023-04-07T14:26:45;9.48;;;7.03;;
52512;SDS011;38422;53.172;6.974;2023-04-07T14:29:12;9.07;;;7.03;;
52512;SDS011;38422;53.172;6.974;2023-04-07T14:31:38;8.50;;;7.03;;
52512;SDS011;38422;53.172;6.974;2023-04-07T14:34:04;8.13;;;6.68;;
52512;SDS011;38422;53.172;6.974;2023-04-07T14:36:32;7.85;;;6.63;;
52512;SDS011;38422;53.172;6.974;2023-04-07T14:38:58;8.60;;;6.60;;
52512;SDS011;38422;53.172;6.974;2023-04-07T14:41:25;9.35;;;6.80;;
52512;SDS011;38422;53.172;6.974;2023-04-07T14:43:51;9.00;;;7.15;;
52512;SDS011;38422;53.172;6.974;2023-04-07T14:46:23;8.52;;;6.97;;
52512;SDS011;38422;53.172;6.974;2023-04-07T14:48:51;7.07;;;6.13;;
52512;SDS011;38422;53.172;6.974;2023-04-07T14:51:17;7.07;;;5.60;;
52512;SDS011;38422;53.172;6.974;2023-04-07T14:53:43;7.60;;;6.20;;
52512;SDS011;38422;53.172;6.974;2023-04-07T14:56:17;7.22;;;5.90;;
52512;SDS011;38422;53.172;6.974;2023-04-07T14:58:43;7.28;;;6.22;;
52512;SDS011;38422;53.172;6.974;2023-04-07T15:01:09;8.82;;;6.22;;
52512;SDS011;38422;53.172;6.974;2023-04-07T15:03:34;7.00;;;6.07;;
52512;SDS011;38422;53.172;6.974;2023-04-07T15:06:00;8.20;;;5.95;;
52512;SDS011;38422;53.172;6.974;2023-04-07T15:08:30;7.80;;;6.07;;